createdAt,value
2018-07-08T00:01:03.434Z,4.10
2018-07-08T00:03:31.723Z,4.80
2018-07-08T00:06:00.062Z,4.13
2018-07-08T00:08:28.426Z,3.97
2018-07-08T00:10:57.953Z,3.97
2018-07-08T00:16:12.238Z,4.17
2018-07-08T00:18:40.521Z,4.37
2018-07-08T00:21:14.702Z,4.33
2018-07-08T01:12:22.187Z,4.60
2018-07-08T01:14:59.953Z,4.43
2018-07-08T01:18:08.613Z,4.30
2018-07-08T01:23:39.647Z,4.57
2018-07-08T01:26:11.849Z,4.43
2018-07-08T01:28:41.143Z,4.83
2018-07-08T01:31:10.446Z,5.07
2018-07-08T01:33:38.958Z,4.77
2018-07-08T01:36:07.458Z,4.50
2018-07-08T01:38:35.769Z,4.53
2018-07-08T01:41:04.177Z,4.73
2018-07-08T01:43:32.498Z,4.50
2018-07-08T01:46:00.811Z,5.03
2018-07-08T01:48:29.126Z,5.13
2018-07-08T01:50:57.449Z,4.47
2018-07-08T01:53:25.764Z,4.87
2018-07-08T01:55:54.093Z,4.37
2018-07-08T01:58:22.398Z,5.33
2018-07-08T02:00:50.666Z,4.40
2018-07-08T02:03:18.974Z,4.60
2018-07-08T02:05:47.240Z,4.83
2018-07-08T02:08:15.543Z,4.93
2018-07-08T02:10:43.835Z,5.13
2018-07-08T02:13:12.158Z,4.47
2018-07-08T02:15:40.489Z,4.70
2018-07-08T02:24:04.174Z,4.90
2018-07-08T02:26:32.504Z,4.53
2018-07-08T02:29:00.849Z,4.80
2018-07-08T02:31:29.194Z,6.27
2018-07-08T02:33:57.521Z,5.20
2018-07-08T02:36:25.825Z,4.87
2018-07-08T02:38:54.448Z,4.83
2018-07-08T02:41:22.848Z,5.00
2018-07-08T02:43:51.181Z,4.60
2018-07-08T02:46:19.537Z,4.67
2018-07-08T02:48:47.867Z,4.90
2018-07-08T02:51:16.178Z,5.07
2018-07-08T02:53:44.498Z,5.10
2018-07-08T02:56:12.781Z,5.50
2018-07-08T02:58:41.067Z,4.77
2018-07-08T03:01:09.353Z,5.17
2018-07-08T03:03:37.641Z,5.10
2018-07-08T03:06:06.185Z,4.30
2018-07-08T03:08:34.467Z,4.77
2018-07-08T03:11:02.754Z,5.03
2018-07-08T03:13:31.016Z,5.13
2018-07-08T03:15:59.319Z,4.87
2018-07-08T04:14:07.714Z,5.50
2018-07-08T04:16:36.045Z,5.27
2018-07-08T04:19:04.376Z,4.90
2018-07-08T04:21:33.074Z,5.27
2018-07-08T04:26:54.486Z,5.20
2018-07-08T04:29:22.830Z,4.90
2018-07-08T04:31:51.178Z,5.33
2018-07-08T04:34:19.487Z,5.40
2018-07-08T04:36:47.809Z,5.13
2018-07-08T04:39:16.138Z,4.70
2018-07-08T04:41:44.491Z,5.20
2018-07-08T04:44:12.834Z,5.03
2018-07-08T04:46:41.170Z,4.90
2018-07-08T04:49:09.507Z,5.37
2018-07-08T04:51:37.826Z,4.50
2018-07-08T04:54:06.139Z,5.00
2018-07-08T04:56:34.421Z,5.60
2018-07-08T04:59:02.709Z,5.20
2018-07-08T05:01:31.009Z,4.90
2018-07-08T05:03:59.314Z,4.67
2018-07-08T05:06:27.655Z,5.17
2018-07-08T05:08:55.901Z,5.30
2018-07-08T05:11:24.197Z,5.30
2018-07-08T05:13:52.865Z,5.37
2018-07-08T05:16:21.145Z,5.17
2018-07-08T06:13:06.737Z,5.83
2018-07-08T06:15:35.061Z,6.30
2018-07-08T06:18:03.394Z,6.20
2018-07-08T06:21:02.926Z,6.63
2018-07-08T06:26:23.930Z,6.43
2018-07-08T06:28:52.281Z,6.03
2018-07-08T06:31:20.610Z,6.30
2018-07-08T06:33:48.929Z,6.23
2018-07-08T06:36:17.225Z,6.53
2018-07-08T06:38:45.559Z,6.67
2018-07-08T06:41:13.881Z,7.00
2018-07-08T06:43:42.204Z,7.03
2018-07-08T06:46:10.538Z,7.67
2018-07-08T06:48:38.825Z,7.93
2018-07-08T06:51:07.129Z,7.33
2018-07-08T06:53:35.442Z,6.90
2018-07-08T06:56:03.749Z,7.37
2018-07-08T06:58:32.037Z,7.27
2018-07-08T07:01:00.333Z,8.77
2018-07-08T07:03:28.645Z,8.03
2018-07-08T07:05:56.966Z,8.27
2018-07-08T07:08:25.237Z,8.23
2018-07-08T07:10:53.513Z,8.63
2018-07-08T07:13:27.527Z,8.87
2018-07-08T07:15:56.164Z,8.37
2018-07-08T07:24:13.717Z,9.03
2018-07-08T07:26:42.054Z,8.57
2018-07-08T07:29:10.377Z,8.33
2018-07-08T07:31:38.793Z,8.60
2018-07-08T07:34:07.093Z,8.67
2018-07-08T07:36:35.418Z,8.80
2018-07-08T07:39:04.481Z,9.10
2018-07-08T07:41:32.799Z,9.23
2018-07-08T07:44:01.117Z,9.17
2018-07-08T07:46:29.455Z,9.17
2018-07-08T07:48:57.761Z,8.37
2018-07-08T07:51:26.086Z,9.10
2018-07-08T07:53:54.418Z,8.77
2018-07-08T07:56:24.487Z,9.70
2018-07-08T07:58:52.994Z,9.83
2018-07-08T08:01:21.310Z,9.30
2018-07-08T08:03:49.622Z,9.00
2018-07-08T08:06:17.950Z,9.27
2018-07-08T08:08:46.304Z,8.43
2018-07-08T08:11:14.655Z,8.53
2018-07-08T08:18:03.582Z,8.80
2018-07-08T08:23:13.442Z,8.10
2018-07-08T08:25:41.781Z,9.93
2018-07-08T08:28:17.907Z,8.87
2018-07-08T08:30:54.138Z,10.70
2018-07-08T08:36:11.527Z,10.37
2018-07-08T08:38:49.341Z,11.13
2018-07-08T08:49:15.214Z,10.10
2018-07-08T08:51:49.932Z,9.13
2018-07-08T08:54:25.701Z,9.97
2018-07-08T08:59:38.639Z,10.60
2018-07-08T09:02:13.550Z,9.83
2018-07-08T09:04:50.916Z,9.37
2018-07-08T09:07:31.423Z,9.33
2018-07-08T09:10:07.631Z,8.43
2018-07-08T09:12:36.142Z,8.43
2018-07-08T09:15:04.526Z,8.37
2018-07-08T09:17:32.869Z,8.30
2018-07-08T09:20:01.210Z,8.07
2018-07-08T09:22:29.709Z,8.50
2018-07-08T09:27:51.539Z,7.87
2018-07-08T09:30:19.877Z,7.87
2018-07-08T09:32:48.178Z,8.70
2018-07-08T09:35:16.480Z,9.13
2018-07-08T09:37:44.810Z,8.97
2018-07-08T09:40:13.135Z,8.30
2018-07-08T09:42:41.476Z,7.83
2018-07-08T09:45:09.794Z,8.07
2018-07-08T09:47:38.123Z,8.73
2018-07-08T09:50:06.449Z,7.90
2018-07-08T09:52:34.828Z,10.37
2018-07-08T09:55:03.149Z,9.47
2018-07-08T09:57:31.432Z,9.77
2018-07-08T09:59:59.724Z,9.50
2018-07-08T10:02:28.004Z,8.53
2018-07-08T10:04:56.347Z,10.13
2018-07-08T10:07:24.605Z,9.07
2018-07-08T10:09:52.873Z,7.77
2018-07-08T10:12:21.194Z,8.13
2018-07-08T10:17:42.757Z,8.87
2018-07-08T10:25:56.938Z,8.97
2018-07-08T10:28:25.784Z,9.77
2018-07-08T10:30:54.454Z,10.00
2018-07-08T10:33:22.792Z,10.90
2018-07-08T10:35:58.389Z,10.77
2018-07-08T10:38:26.750Z,11.37
2018-07-08T10:40:55.055Z,11.83
2018-07-08T10:43:23.389Z,11.33
2018-07-08T10:45:51.662Z,10.10
2018-07-08T10:48:19.949Z,11.17
2018-07-08T10:50:48.251Z,11.17
2018-07-08T10:53:16.562Z,11.30
2018-07-08T10:55:44.863Z,10.00
2018-07-08T10:58:13.362Z,8.90
2018-07-08T11:00:41.670Z,8.87
2018-07-08T11:03:09.983Z,8.87
2018-07-08T11:05:38.267Z,8.70
2018-07-08T11:08:06.566Z,8.37
2018-07-08T11:10:34.904Z,7.80
2018-07-08T11:13:03.225Z,7.60
2018-07-08T11:15:31.528Z,7.07
2018-07-08T11:23:45.890Z,7.90
2018-07-08T11:26:14.215Z,8.33
2018-07-08T11:28:42.534Z,7.60
2018-07-08T11:31:10.861Z,8.50
2018-07-08T11:33:39.583Z,7.53
2018-07-08T11:36:08.886Z,8.80
2018-07-08T11:38:37.202Z,9.10
2018-07-08T11:41:05.504Z,8.80
2018-07-08T11:43:33.858Z,9.00
2018-07-08T11:46:02.238Z,8.47
2018-07-08T11:48:30.557Z,9.43
2018-07-08T11:50:58.880Z,9.57
2018-07-08T11:53:27.232Z,8.97
2018-07-08T11:55:55.580Z,8.93
2018-07-08T11:58:23.938Z,9.17
2018-07-08T12:00:52.370Z,8.33
2018-07-08T12:03:20.767Z,9.40
2018-07-08T12:05:49.211Z,9.50
2018-07-08T12:08:17.894Z,9.30
2018-07-08T12:10:46.234Z,9.03
2018-07-08T12:19:19.439Z,9.10
2018-07-08T12:24:51.262Z,8.57
2018-07-08T12:27:19.581Z,8.43
2018-07-08T12:29:48.255Z,8.40
2018-07-08T12:32:16.610Z,8.33
2018-07-08T12:34:44.946Z,7.30
2018-07-08T12:37:13.270Z,7.97
2018-07-08T12:39:41.610Z,8.60
2018-07-08T12:42:09.949Z,7.20
2018-07-08T12:44:38.405Z,6.63
2018-07-08T12:47:06.652Z,7.13
2018-07-08T12:49:34.977Z,7.97
2018-07-08T12:52:03.310Z,7.37
2018-07-08T12:54:31.650Z,7.23
2018-07-08T12:56:59.984Z,6.80
2018-07-08T12:59:28.282Z,7.67
2018-07-08T13:01:56.573Z,7.10
2018-07-08T13:04:24.890Z,7.17
2018-07-08T13:06:53.199Z,7.10
2018-07-08T13:09:21.502Z,7.30
2018-07-08T13:11:49.787Z,7.90
2018-07-08T13:25:59.746Z,8.70
2018-07-08T13:28:28.106Z,6.83
2018-07-08T13:30:56.533Z,7.50
2018-07-08T13:33:25.018Z,6.77
2018-07-08T13:35:53.365Z,7.40
2018-07-08T13:38:21.673Z,6.90
2018-07-08T13:40:50.055Z,7.03
2018-07-08T13:43:18.505Z,7.00
2018-07-08T13:45:46.877Z,7.03
2018-07-08T13:48:15.210Z,6.33
2018-07-08T13:50:43.538Z,7.23
2018-07-08T13:53:11.941Z,7.27
2018-07-08T13:55:40.336Z,6.67
2018-07-08T13:58:08.598Z,6.30
2018-07-08T14:00:36.877Z,5.87
2018-07-08T14:03:05.186Z,5.53
2018-07-08T14:05:33.497Z,6.90
2018-07-08T14:08:01.833Z,6.00
2018-07-08T14:10:30.114Z,6.23
2018-07-08T14:18:54.098Z,6.80
2018-07-08T14:24:34.198Z,6.63
2018-07-08T14:27:02.521Z,6.73
2018-07-08T14:29:30.884Z,7.23
2018-07-08T14:31:59.182Z,7.50
2018-07-08T14:34:27.502Z,7.67
2018-07-08T14:36:55.830Z,8.00
2018-07-08T14:39:24.160Z,8.27
2018-07-08T14:41:52.622Z,8.17
2018-07-08T14:44:20.930Z,8.47
2018-07-08T14:46:49.286Z,9.17
2018-07-08T14:49:17.582Z,8.20
2018-07-08T14:51:46.345Z,8.37
2018-07-08T14:54:14.241Z,7.83
2018-07-08T14:56:42.562Z,7.80
2018-07-08T14:59:10.874Z,7.40
2018-07-08T15:01:39.173Z,7.17
2018-07-08T15:04:07.506Z,7.17
2018-07-08T15:06:35.816Z,7.93
2018-07-08T15:09:07.598Z,7.80
2018-07-08T15:11:36.033Z,7.50
2018-07-08T15:26:45.257Z,5.97
2018-07-08T15:29:13.577Z,6.50
2018-07-08T15:31:41.967Z,6.70
2018-07-08T15:34:10.277Z,6.20
2018-07-08T15:36:38.604Z,6.00
2018-07-08T15:39:07.734Z,6.70
2018-07-08T15:41:36.099Z,6.40
2018-07-08T15:44:04.401Z,6.10
2018-07-08T15:46:32.966Z,7.57
2018-07-08T15:49:01.321Z,6.40
2018-07-08T15:51:29.673Z,6.40
2018-07-08T15:53:58.122Z,6.53
2018-07-08T15:56:26.497Z,6.60
2018-07-08T15:58:54.808Z,6.57
2018-07-08T16:01:23.101Z,6.37
2018-07-08T16:03:51.413Z,6.47
2018-07-08T16:06:19.698Z,5.67
2018-07-08T16:08:47.972Z,6.60
2018-07-08T16:11:16.270Z,6.57
2018-07-08T16:13:56.357Z,6.30
2018-07-08T16:16:24.970Z,6.53
2018-07-08T16:20:13.728Z,6.03
2018-07-08T16:22:42.405Z,6.30
2018-07-08T16:25:16.938Z,6.50
2018-07-08T16:27:45.740Z,6.03
2018-07-08T16:30:14.021Z,6.20
2018-07-08T16:32:42.297Z,6.03
2018-07-08T16:35:10.571Z,5.70
2018-07-08T16:37:38.858Z,5.40
2018-07-08T16:40:07.158Z,5.43
2018-07-08T16:42:35.435Z,5.43
2018-07-08T16:45:03.811Z,5.90
2018-07-08T16:47:32.097Z,5.90
2018-07-08T16:50:00.362Z,5.57
2018-07-08T16:52:28.645Z,5.60
2018-07-08T16:54:56.961Z,4.87
2018-07-08T16:57:25.237Z,5.17
2018-07-08T16:59:53.509Z,5.47
2018-07-08T17:02:21.781Z,5.00
2018-07-08T17:04:50.068Z,5.13
2018-07-08T17:07:18.850Z,4.53
2018-07-08T17:09:47.182Z,4.53
2018-07-08T17:12:15.600Z,4.37
2018-07-08T17:17:37.587Z,4.47
2018-07-08T17:23:26.075Z,5.20
2018-07-08T18:14:31.432Z,5.37
2018-07-08T18:16:59.789Z,5.33
2018-07-08T18:22:51.834Z,4.93
2018-07-08T18:25:20.199Z,4.80
2018-07-08T18:27:48.541Z,5.03
2018-07-08T18:30:16.898Z,4.43
2018-07-08T18:32:45.234Z,5.10
2018-07-08T18:35:13.550Z,4.80
2018-07-08T18:37:41.887Z,5.57
2018-07-08T18:40:10.258Z,5.40
2018-07-08T18:42:38.611Z,4.93
2018-07-08T18:45:07.250Z,5.20
2018-07-08T18:47:35.518Z,5.10
2018-07-08T18:50:03.959Z,5.33
2018-07-08T18:52:32.258Z,5.20
2018-07-08T18:55:00.561Z,5.47
2018-07-08T18:57:28.954Z,4.87
2018-07-08T18:59:57.442Z,4.73
2018-07-08T19:02:25.742Z,5.07
2018-07-08T19:04:54.005Z,5.00
2018-07-08T19:07:22.290Z,4.93
2018-07-08T19:09:50.565Z,5.00
2018-07-08T19:12:18.886Z,5.13
2018-07-08T19:26:36.914Z,4.77
2018-07-08T19:29:05.273Z,4.80
2018-07-08T19:31:33.593Z,4.43
2018-07-08T19:34:01.906Z,4.43
2018-07-08T19:36:30.238Z,4.43
2018-07-08T19:38:58.543Z,5.43
2018-07-08T19:41:26.866Z,5.67
2018-07-08T19:43:55.220Z,4.97
2018-07-08T19:46:23.553Z,4.83
2018-07-08T19:48:51.850Z,4.87
2018-07-08T19:51:20.182Z,5.10
2018-07-08T19:53:48.515Z,4.90
2018-07-08T19:56:16.901Z,5.23
2018-07-08T19:58:45.206Z,4.83
2018-07-08T20:01:13.510Z,4.97
2018-07-08T20:03:41.940Z,4.77
2018-07-08T20:06:10.217Z,4.77
2018-07-08T20:08:38.486Z,4.20
2018-07-08T20:11:06.830Z,4.27
2018-07-08T20:16:27.925Z,4.53
2018-07-08T20:18:56.151Z,4.33
2018-07-08T20:21:41.396Z,4.70
2018-07-08T20:24:09.674Z,4.10
2018-07-08T20:26:37.983Z,4.63
2018-07-08T20:29:06.509Z,4.27
2018-07-08T20:31:34.826Z,4.57
2018-07-08T20:34:03.147Z,4.43
2018-07-08T20:36:31.513Z,4.70
2018-07-08T20:38:59.849Z,4.20
2018-07-08T20:41:28.153Z,4.80
2018-07-08T20:43:56.463Z,4.33
2018-07-08T20:46:24.777Z,4.10
2018-07-08T20:48:53.098Z,3.90
2018-07-08T20:51:21.437Z,4.03
2018-07-08T20:53:49.725Z,4.33
2018-07-08T20:56:18.006Z,4.33
2018-07-08T20:58:46.277Z,4.50
2018-07-08T21:01:14.552Z,4.73
2018-07-08T21:03:42.827Z,4.17
2018-07-08T21:06:11.134Z,4.40
2018-07-08T21:08:39.765Z,4.00
2018-07-08T21:11:08.045Z,4.20
2018-07-08T22:24:21.978Z,2.30
2018-07-08T22:26:50.366Z,2.27
2018-07-08T22:32:47.754Z,2.27
2018-07-08T22:35:16.732Z,2.37
2018-07-08T22:37:45.120Z,2.43
2018-07-08T22:40:13.544Z,1.90
2018-07-08T22:42:41.890Z,1.93
2018-07-08T22:45:10.284Z,1.97
2018-07-08T22:47:38.652Z,2.50
2018-07-08T22:50:07.024Z,1.90
2018-07-08T22:52:35.417Z,2.07
2018-07-08T22:55:03.762Z,1.90
2018-07-08T22:57:32.109Z,2.23
2018-07-08T23:00:11.673Z,2.33
2018-07-08T23:02:43.244Z,2.20
2018-07-08T23:05:11.626Z,2.17
2018-07-08T23:07:40.505Z,2.73
2018-07-08T23:10:09.753Z,1.97
2018-07-08T23:18:11.196Z,2.33
2018-07-08T23:20:39.340Z,2.60
2018-07-08T23:23:07.729Z,2.27
2018-07-08T23:25:36.165Z,2.63
2018-07-08T23:28:04.564Z,2.27
2018-07-08T23:30:32.970Z,2.60
2018-07-08T23:33:01.370Z,2.83
2018-07-08T23:35:29.777Z,2.30
2018-07-08T23:37:58.180Z,2.30
2018-07-08T23:40:26.586Z,2.20
2018-07-08T23:42:55.005Z,2.27
2018-07-08T23:45:23.500Z,2.50
2018-07-08T23:47:51.937Z,2.40
2018-07-08T23:50:20.381Z,2.53
2018-07-08T23:52:48.746Z,2.77
2018-07-08T23:55:17.080Z,2.67
2018-07-08T23:57:45.465Z,2.43
